Time;durP1;ratioP1;P1;durP2;ratioP2;P2;SDS_P1;SDS_P2;PMS_P1;PMS_P2;Temp;Humidity;BMP_temperature;BMP_pressure;BME280_temperature;BME280_humidity;BME280_pressure;Samples;Min_cycle;Max_cycle;Signal;HPM_P1;HPM_P2
2021/06/24 00:00:56;;;;;;;3.70;2.30;;;;;;;;;;4946424;28;20141;-73
2021/06/24 00:03:26;;;;;;;3.17;2.30;;;;;;;;;;4945120;28;20070;-74
2021/06/24 00:05:53;;;;;;;4.55;2.33;;;;;;;;;;4946158;28;20031;-73
2021/06/24 00:08:20;;;;;;;4.05;2.50;;;;;;;;;;4945784;28;20122;-74
2021/06/24 00:10:47;;;;;;;3.60;2.55;;;;;;;;;;4946239;28;20070;-73
2021/06/24 00:13:14;;;;;;;4.28;2.42;;;;;;;;;;4939738;28;20125;-74
2021/06/24 00:15:40;;;;;;;3.20;2.20;;;;;;;;;;4941120;28;20732;-73
2021/06/24 00:18:08;;;;;;;4.07;2.40;;;;;;;;;;4942691;28;20515;-74
2021/06/24 00:20:35;;;;;;;3.55;2.63;;;;;;;;;;4947356;28;20509;-74
2021/06/24 00:23:01;;;;;;;3.50;2.35;;;;;;;;;;4945239;28;20122;-74
2021/06/24 00:25:28;;;;;;;3.17;2.40;;;;;;;;;;4943069;28;20067;-73
2021/06/24 00:27:54;;;;;;;3.10;2.28;;;;;;;;;;4945737;28;20059;-73
2021/06/24 00:30:21;;;;;;;4.05;2.30;;;;;;;;;;4937479;28;20518;-72
2021/06/24 00:32:47;;;;;;;4.25;2.20;;;;;;;;;;4945626;28;20063;-72
2021/06/24 00:35:14;;;;;;;3.40;2.10;;;;;;;;;;4940326;28;20074;-73
2021/06/24 00:37:41;;;;;;;4.38;2.30;;;;;;;;;;4939935;28;20211;-72
2021/06/24 00:40:09;;;;;;;5.03;2.50;;;;;;;;;;4944913;28;20125;-74
2021/06/24 00:42:36;;;;;;;2.70;2.10;;;;;;;;;;4945195;28;20036;-73
2021/06/24 00:45:03;;;;;;;3.53;2.30;;;;;;;;;;4946588;28;20122;-72
2021/06/24 00:47:30;;;;;;;5.00;2.50;;;;;;;;;;4962227;28;20471;-73
2021/06/24 00:49:56;;;;;;;3.20;2.40;;;;;;;;;;4939052;28;20066;-74
2021/06/24 00:52:23;;;;;;;5.50;2.80;;;;;;;;;;4947307;28;20112;-74
2021/06/24 00:54:49;;;;;;;3.58;2.38;;;;;;;;;;4948950;28;20079;-73
2021/06/24 00:57:16;;;;;;;4.50;2.40;;;;;;;;;;4945036;28;20509;-72
2021/06/24 00:59:42;;;;;;;3.92;2.20;;;;;;;;;;4948826;28;20501;-73
2021/06/24 01:02:08;;;;;;;3.22;2.50;;;;;;;;;;4947534;28;20310;-73
2021/06/24 01:04:36;;;;;;;3.67;2.70;;;;;;;;;;4963582;28;20410;-73
2021/06/24 01:07:03;;;;;;;4.25;2.30;;;;;;;;;;4945668;28;20058;-73
2021/06/24 01:09:29;;;;;;;3.75;2.60;;;;;;;;;;4941002;28;20503;-73
2021/06/24 01:11:56;;;;;;;4.20;2.42;;;;;;;;;;4950793;28;20099;-73
2021/06/24 01:14:23;;;;;;;3.25;2.30;;;;;;;;;;4962932;28;20600;-73
2021/06/24 01:16:53;;;;;;;3.30;2.28;;;;;;;;;;4963236;28;20106;-73
2021/06/24 01:19:19;;;;;;;3.92;2.45;;;;;;;;;;4945028;28;20133;-74
2021/06/24 01:21:46;;;;;;;3.80;2.28;;;;;;;;;;4946596;28;20070;-74
2021/06/24 01:24:13;;;;;;;3.20;2.17;;;;;;;;;;4963205;28;20063;-74
2021/06/24 01:26:41;;;;;;;3.45;2.33;;;;;;;;;;4945907;28;20046;-72
2021/06/24 01:29:08;;;;;;;4.45;2.22;;;;;;;;;;4948101;28;20237;-73
2021/06/24 01:31:35;;;;;;;3.97;2.50;;;;;;;;;;4949763;28;20059;-73
2021/06/24 01:34:04;;;;;;;3.40;2.40;;;;;;;;;;4944705;28;20343;-74
2021/06/24 01:36:30;;;;;;;3.08;2.40;;;;;;;;;;4948924;28;20121;-73
2021/06/24 01:38:57;;;;;;;3.28;2.40;;;;;;;;;;4946107;28;20086;-73
2021/06/24 01:41:23;;;;;;;4.03;2.30;;;;;;;;;;4948612;28;20069;-73
2021/06/24 01:43:50;;;;;;;3.33;2.22;;;;;;;;;;4949380;28;20055;-73
2021/06/24 01:46:16;;;;;;;3.50;2.30;;;;;;;;;;4947114;28;20503;-72
2021/06/24 01:48:43;;;;;;;4.03;2.45;;;;;;;;;;4949395;28;20062;-72
2021/06/24 01:51:10;;;;;;;4.20;2.60;;;;;;;;;;4947034;28;20094;-73
2021/06/24 01:53:37;;;;;;;4.22;2.53;;;;;;;;;;4948559;28;20063;-73
2021/06/24 01:56:03;;;;;;;3.40;2.47;;;;;;;;;;4948707;28;20085;-75
2021/06/24 01:58:30;;;;;;;5.47;2.63;;;;;;;;;;4949505;28;20059;-73
2021/06/24 02:00:58;;;;;;;3.53;2.40;;;;;;;;;;4947011;28;20071;-72
2021/06/24 02:03:25;;;;;;;3.88;2.20;;;;;;;;;;4944643;28;20114;-73
2021/06/24 02:05:52;;;;;;;4.40;2.67;;;;;;;;;;4948005;29;20066;-73
2021/06/24 02:08:20;;;;;;;3.55;2.40;;;;;;;;;;4946916;28;20164;-73
2021/06/24 02:10:47;;;;;;;4.95;2.53;;;;;;;;;;4949109;28;20063;-74
2021/06/24 02:13:14;;;;;;;3.90;2.20;;;;;;;;;;4942763;28;20066;-74
2021/06/24 02:15:41;;;;;;;3.42;2.50;;;;;;;;;;4948653;28;20055;-73
2021/06/24 02:18:07;;;;;;;3.88;2.33;;;;;;;;;;4948220;28;20071;-74
2021/06/24 02:20:34;;;;;;;3.65;2.42;;;;;;;;;;4948345;28;20067;-74
2021/06/24 02:23:01;;;;;;;3.83;2.47;;;;;;;;;;4939025;28;20075;-74
2021/06/24 02:25:28;;;;;;;2.90;2.28;;;;;;;;;;4944101;28;20062;-73
2021/06/24 02:27:55;;;;;;;2.95;2.13;;;;;;;;;;4949063;28;20067;-73
2021/06/24 02:30:22;;;;;;;3.08;2.20;;;;;;;;;;4945481;28;20506;-73
2021/06/24 02:32:49;;;;;;;3.50;2.25;;;;;;;;;;4947497;28;20562;-74
2021/06/24 02:35:16;;;;;;;3.53;2.17;;;;;;;;;;4948477;28;20502;-73
2021/06/24 02:37:44;;;;;;;3.55;2.45;;;;;;;;;;4944814;28;20070;-73
2021/06/24 02:40:11;;;;;;;3.55;2.22;;;;;;;;;;4946986;28;20121;-73
2021/06/24 02:42:38;;;;;;;3.35;2.40;;;;;;;;;;4938128;28;20110;-73
2021/06/24 02:45:05;;;;;;;5.55;2.80;;;;;;;;;;4939574;28;20062;-74
2021/06/24 02:47:32;;;;;;;2.47;1.98;;;;;;;;;;4945634;28;20057;-74
2021/06/24 02:49:58;;;;;;;3.88;2.47;;;;;;;;;;4948350;28;20059;-74
2021/06/24 02:52:25;;;;;;;3.45;2.55;;;;;;;;;;4944980;28;20051;-73
2021/06/24 02:54:52;;;;;;;4.43;2.20;;;;;;;;;;4947040;28;20075;-73
2021/06/24 02:57:19;;;;;;;3.45;2.35;;;;;;;;;;4944890;28;20063;-74
2021/06/24 02:59:46;;;;;;;4.18;2.25;;;;;;;;;;4949412;28;20066;-75
2021/06/24 03:02:13;;;;;;;2.80;2.15;;;;;;;;;;4947643;28;20436;-73
2021/06/24 03:04:40;;;;;;;3.03;2.10;;;;;;;;;;4945922;28;20118;-74
2021/06/24 03:07:06;;;;;;;2.95;2.13;;;;;;;;;;4943654;28;20677;-74
2021/06/24 03:09:33;;;;;;;3.53;2.40;;;;;;;;;;4945852;28;20070;-74
2021/06/24 03:11:59;;;;;;;3.20;2.40;;;;;;;;;;4946007;28;20191;-76
2021/06/24 03:14:26;;;;;;;3.75;2.35;;;;;;;;;;4945229;28;20070;-73
2021/06/24 03:16:52;;;;;;;3.10;2.22;;;;;;;;;;4947556;28;20051;-74
2021/06/24 03:19:19;;;;;;;3.33;2.05;;;;;;;;;;4945382;28;21137;-76
2021/06/24 03:21:46;;;;;;;3.00;2.03;;;;;;;;;;4939878;28;20526;-74
2021/06/24 03:24:12;;;;;;;3.20;1.95;;;;;;;;;;4947500;28;20055;-74
2021/06/24 03:26:39;;;;;;;2.90;2.10;;;;;;;;;;4944443;28;20055;-75
2021/06/24 03:29:06;;;;;;;3.05;2.05;;;;;;;;;;4938746;29;20074;-74
2021/06/24 03:31:33;;;;;;;3.70;2.30;;;;;;;;;;4942373;28;20065;-74
2021/06/24 03:33:59;;;;;;;3.38;2.13;;;;;;;;;;4944287;28;20067;-77
2021/06/24 03:36:26;;;;;;;4.28;2.35;;;;;;;;;;4946015;28;20126;-74
2021/06/24 03:38:52;;;;;;;3.47;2.30;;;;;;;;;;4939053;28;20141;-75
2021/06/24 03:41:24;;;;;;;4.20;2.47;;;;;;;;;;4939127;28;20177;-74
2021/06/24 03:43:50;;;;;;;;;;;;;;;;;;4947651;28;20077;-75
2021/06/24 03:46:16;;;;;;;3.40;2.25;;;;;;;;;;4947272;28;19950;-75
2021/06/24 03:48:43;;;;;;;3.38;2.00;;;;;;;;;;4948944;28;20051;-75
2021/06/24 03:51:09;;;;;;;3.05;2.10;;;;;;;;;;4945170;28;20059;-75
2021/06/24 03:53:36;;;;;;;3.22;2.20;;;;;;;;;;4946401;28;20066;-76
2021/06/24 03:56:02;;;;;;;3.53;2.10;;;;;;;;;;4945558;28;20070;-74
2021/06/24 03:58:29;;;;;;;4.80;2.15;;;;;;;;;;4946287;28;20074;-74
2021/06/24 04:00:57;;;;;;;3.22;2.20;;;;;;;;;;4947189;28;20191;-76
2021/06/24 04:03:23;;;;;;;2.75;1.83;;;;;;;;;;4945473;28;20071;-76
2021/06/24 04:05:50;;;;;;;2.85;2.15;;;;;;;;;;4944993;28;20133;-75
2021/06/24 04:08:16;;;;;;;3.22;1.95;;;;;;;;;;4944174;28;20084;-75
2021/06/24 04:10:42;;;;;;;2.95;2.13;;;;;;;;;;4947746;28;20526;-73
2021/06/24 04:13:09;;;;;;;4.78;2.30;;;;;;;;;;4944922;28;20071;-74
2021/06/24 04:15:36;;;;;;;3.15;2.13;;;;;;;;;;4939629;28;20047;-74
2021/06/24 04:18:05;;;;;;;2.72;2.15;;;;;;;;;;4945600;28;20051;-74
2021/06/24 04:20:32;;;;;;;5.40;2.08;;;;;;;;;;4943780;28;20059;-73
2021/06/24 04:22:59;;;;;;;2.67;1.95;;;;;;;;;;4948418;28;20074;-73
2021/06/24 04:25:25;;;;;;;2.50;1.85;;;;;;;;;;4944886;28;21206;-72
2021/06/24 04:27:52;;;;;;;4.43;2.28;;;;;;;;;;4950921;28;20082;-73
2021/06/24 04:30:19;;;;;;;2.80;1.90;;;;;;;;;;4952493;28;20063;-75
2021/06/24 04:32:46;;;;;;;2.47;1.88;;;;;;;;;;4951740;28;20086;-74
2021/06/24 04:35:13;;;;;;;3.05;2.13;;;;;;;;;;4951868;28;20087;-74
2021/06/24 04:37:39;;;;;;;3.40;2.08;;;;;;;;;;4947067;28;20058;-74
2021/06/24 04:40:07;;;;;;;2.75;1.90;;;;;;;;;;4951906;28;20062;-74
2021/06/24 04:42:34;;;;;;;3.00;1.80;;;;;;;;;;4951668;28;20073;-74
2021/06/24 04:45:00;;;;;;;3.65;1.80;;;;;;;;;;4952012;28;20063;-74
2021/06/24 04:47:26;;;;;;;3.17;1.92;;;;;;;;;;4949345;28;20059;-74
2021/06/24 04:49:53;;;;;;;2.63;1.70;;;;;;;;;;4953065;28;20062;-73
2021/06/24 04:52:19;;;;;;;2.97;2.05;;;;;;;;;;4948273;28;21702;-74
2021/06/24 04:54:46;;;;;;;3.38;1.90;;;;;;;;;;4950356;28;20066;-75
2021/06/24 04:57:13;;;;;;;2.78;2.10;;;;;;;;;;4951516;28;20081;-74
2021/06/24 04:59:40;;;;;;;2.80;2.00;;;;;;;;;;4950185;28;20514;-74
2021/06/24 05:02:06;;;;;;;3.05;2.13;;;;;;;;;;4960594;28;20167;-75
2021/06/24 05:04:33;;;;;;;3.25;2.00;;;;;;;;;;4948350;28;20649;-75
2021/06/24 05:07:07;;;;;;;3.13;1.92;;;;;;;;;;4947140;28;20133;-75
2021/06/24 05:09:38;;;;;;;3.53;1.98;;;;;;;;;;4942607;28;20075;-74
2021/06/24 05:12:06;;;;;;;3.40;1.95;;;;;;;;;;4958055;28;20066;-74
2021/06/24 05:14:32;;;;;;;2.45;1.77;;;;;;;;;;4953218;28;20062;-73
2021/06/24 05:16:59;;;;;;;2.88;1.70;;;;;;;;;;4951322;28;20164;-74
2021/06/24 05:19:25;;;;;;;2.72;1.90;;;;;;;;;;4930930;29;21325;-73
2021/06/24 05:21:51;;;;;;;2.40;1.80;;;;;;;;;;4933509;28;20039;-73
2021/06/24 05:24:18;;;;;;;3.00;1.80;;;;;;;;;;4933008;28;20873;-76
2021/06/24 05:26:44;;;;;;;2.50;1.70;;;;;;;;;;4930459;28;20516;-75
2021/06/24 05:29:11;;;;;;;2.58;1.67;;;;;;;;;;4930648;28;20060;-75
2021/06/24 05:31:39;;;;;;;2.83;1.60;;;;;;;;;;4933124;28;20055;-74
2021/06/24 05:34:05;;;;;;;2.50;1.80;;;;;;;;;;4947651;28;20071;-75
2021/06/24 05:36:33;;;;;;;2.83;2.10;;;;;;;;;;4930571;29;20067;-74
2021/06/24 05:39:00;;;;;;;2.75;1.83;;;;;;;;;;4928031;28;20079;-74
2021/06/24 05:41:28;;;;;;;2.95;1.60;;;;;;;;;;4924737;28;20999;-73
2021/06/24 05:43:54;;;;;;;2.88;2.00;;;;;;;;;;4929135;28;20059;-74
2021/06/24 05:46:21;;;;;;;3.53;2.00;;;;;;;;;;4921840;28;20088;-73
2021/06/24 05:48:51;;;;;;;2.20;1.55;;;;;;;;;;4927429;28;20070;-75
2021/06/24 05:51:18;;;;;;;2.92;1.90;;;;;;;;;;4925740;28;20444;-74
2021/06/24 05:53:44;;;;;;;2.30;1.70;;;;;;;;;;4942885;28;20572;-73
2021/06/24 05:56:11;;;;;;;2.47;1.70;;;;;;;;;;4928041;28;20060;-72
2021/06/24 05:58:37;;;;;;;3.10;1.55;;;;;;;;;;4924881;28;20067;-74
2021/06/24 06:01:03;;;;;;;2.20;1.88;;;;;;;;;;4928958;29;20533;-74
2021/06/24 06:03:30;;;;;;;2.70;1.80;;;;;;;;;;4928428;29;20067;-74
2021/06/24 06:05:56;;;;;;;4.07;1.83;;;;;;;;;;4929579;28;20522;-75
2021/06/24 06:08:23;;;;;;;2.88;1.80;;;;;;;;;;4928949;29;20091;-73
2021/06/24 06:10:50;;;;;;;2.95;1.52;;;;;;;;;;4943758;29;20491;-73
2021/06/24 06:13:16;;;;;;;2.47;1.83;;;;;;;;;;4927440;28;20515;-74
2021/06/24 06:15:44;;;;;;;3.95;1.70;;;;;;;;;;4929361;29;20151;-73
2021/06/24 06:18:15;;;;;;;2.85;1.60;;;;;;;;;;4927436;28;20036;-73
2021/06/24 06:20:43;;;;;;;3.47;1.60;;;;;;;;;;4928822;28;20048;-74
2021/06/24 06:23:10;;;;;;;2.67;1.50;;;;;;;;;;4925342;28;20135;-75
2021/06/24 06:25:36;;;;;;;4.03;1.88;;;;;;;;;;4940885;28;20559;-73
2021/06/24 06:28:02;;;;;;;3.70;1.80;;;;;;;;;;4927954;28;20075;-75
2021/06/24 06:30:29;;;;;;;3.30;1.60;;;;;;;;;;4926923;28;20063;-76
2021/06/24 06:32:56;;;;;;;2.63;1.50;;;;;;;;;;4926322;28;20100;-75
2021/06/24 06:35:22;;;;;;;2.28;1.25;;;;;;;;;;4926637;28;20070;-75
2021/06/24 06:37:49;;;;;;;3.78;1.65;;;;;;;;;;4928856;28;20063;-75
2021/06/24 06:40:15;;;;;;;2.83;1.73;;;;;;;;;;4926088;28;20071;-74
2021/06/24 06:42:42;;;;;;;2.78;1.70;;;;;;;;;;4927685;28;20059;-77
2021/06/24 06:45:10;;;;;;;3.33;1.60;;;;;;;;;;4932340;28;20040;-75
2021/06/24 06:47:36;;;;;;;3.95;2.03;;;;;;;;;;4926147;29;21463;-75
2021/06/24 06:50:03;;;;;;;2.75;1.63;;;;;;;;;;4942456;28;20111;-74
2021/06/24 06:52:29;;;;;;;3.38;1.85;;;;;;;;;;4926965;28;20125;-75
2021/06/24 06:54:56;;;;;;;8.20;2.55;;;;;;;;;;4928504;28;20098;-76
2021/06/24 06:57:22;;;;;;;5.93;2.53;;;;;;;;;;4925611;28;20071;-75
2021/06/24 06:59:48;;;;;;;8.07;2.50;;;;;;;;;;4930091;28;20062;-74
2021/06/24 07:02:15;;;;;;;4.70;2.08;;;;;;;;;;4926687;28;20048;-75
2021/06/24 07:04:41;;;;;;;5.18;2.35;;;;;;;;;;4927771;28;20138;-75
2021/06/24 07:07:08;;;;;;;4.93;2.88;;;;;;;;;;4928489;28;20407;-74
2021/06/24 07:09:34;;;;;;;5.85;2.85;;;;;;;;;;4928111;28;20063;-74
2021/06/24 07:12:01;;;;;;;7.07;3.20;;;;;;;;;;4931269;28;20067;-73
2021/06/24 07:14:27;;;;;;;8.13;3.30;;;;;;;;;;4928862;28;20067;-74
2021/06/24 07:16:54;;;;;;;6.60;2.90;;;;;;;;;;4929546;28;20119;-75
2021/06/24 07:19:20;;;;;;;4.40;2.92;;;;;;;;;;4929007;28;20479;-74
2021/06/24 07:21:46;;;;;;;4.72;2.70;;;;;;;;;;4928279;29;20055;-73
2021/06/24 07:24:14;;;;;;;7.38;3.30;;;;;;;;;;4928076;28;20067;-73
2021/06/24 07:26:41;;;;;;;6.10;3.08;;;;;;;;;;4931383;28;20063;-74
2021/06/24 07:29:07;;;;;;;5.38;3.28;;;;;;;;;;4932562;28;20062;-74
2021/06/24 07:31:34;;;;;;;6.40;3.20;;;;;;;;;;4929163;29;20538;-74
2021/06/24 07:34:00;;;;;;;4.93;2.80;;;;;;;;;;4930040;28;20408;-74
2021/06/24 07:36:26;;;;;;;5.53;2.60;;;;;;;;;;4931905;29;20470;-74
2021/06/24 07:38:53;;;;;;;6.10;2.88;;;;;;;;;;4929703;28;20070;-73
2021/06/24 07:41:22;;;;;;;7.30;3.00;;;;;;;;;;4926031;28;20063;-75
2021/06/24 07:43:48;;;;;;;9.55;5.90;;;;;;;;;;4928659;28;20062;-74
2021/06/24 07:46:14;;;;;;;7.95;3.92;;;;;;;;;;4926681;28;20468;-75
2021/06/24 07:48:41;;;;;;;8.38;3.53;;;;;;;;;;4927941;28;20090;-74
2021/06/24 07:51:07;;;;;;;6.22;2.97;;;;;;;;;;4925708;28;20174;-74
2021/06/24 07:53:33;;;;;;;9.40;2.78;;;;;;;;;;4927468;28;20123;-73
2021/06/24 07:56:00;;;;;;;9.77;2.95;;;;;;;;;;4930030;29;20078;-75
2021/06/24 07:58:26;;;;;;;5.03;2.38;;;;;;;;;;4929357;28;20047;-76
2021/06/24 08:00:53;;;;;;;7.32;2.58;;;;;;;;;;4923870;28;20063;-72
2021/06/24 08:03:19;;;;;;;7.10;2.50;;;;;;;;;;4929019;28;20074;-74
2021/06/24 08:05:45;;;;;;;5.43;2.30;;;;;;;;;;4943562;28;20064;-73
2021/06/24 08:08:12;;;;;;;4.53;2.30;;;;;;;;;;4927456;28;20087;-73
2021/06/24 08:10:38;;;;;;;4.25;2.30;;;;;;;;;;4929267;28;20047;-73
2021/06/24 08:13:04;;;;;;;5.85;2.17;;;;;;;;;;4927403;29;20538;-75
2021/06/24 08:15:31;;;;;;;6.00;2.03;;;;;;;;;;4927520;28;20056;-75
2021/06/24 08:17:57;;;;;;;6.93;2.13;;;;;;;;;;4942090;28;20566;-75
2021/06/24 08:20:24;;;;;;;5.55;2.22;;;;;;;;;;4923249;28;20066;-74
2021/06/24 08:22:50;;;;;;;6.53;2.80;;;;;;;;;;4918766;29;20126;-75
2021/06/24 08:25:17;;;;;;;6.45;2.55;;;;;;;;;;4929794;28;20056;-78
2021/06/24 08:27:43;;;;;;;5.25;2.03;;;;;;;;;;4929590;29;20068;-75
2021/06/24 08:30:10;;;;;;;5.25;2.20;;;;;;;;;;4928530;29;20055;-74
2021/06/24 08:32:37;;;;;;;6.55;2.47;;;;;;;;;;4926309;28;21286;-75
2021/06/24 08:35:05;;;;;;;4.10;2.38;;;;;;;;;;4927923;28;20063;-77
2021/06/24 08:37:32;;;;;;;5.28;2.53;;;;;;;;;;4927555;28;20066;-75
2021/06/24 08:39:58;;;;;;;4.50;2.50;;;;;;;;;;4926334;29;20056;-77
2021/06/24 08:42:24;;;;;;;6.20;2.70;;;;;;;;;;4925569;28;20071;-76
2021/06/24 08:44:51;;;;;;;5.85;2.72;;;;;;;;;;4929661;29;20059;-76
2021/06/24 08:47:17;;;;;;;5.95;2.90;;;;;;;;;;4930336;28;20503;-76
2021/06/24 08:49:44;;;;;;;5.07;3.05;;;;;;;;;;4929276;29;20079;-76
2021/06/24 08:52:11;;;;;;;4.65;3.17;;;;;;;;;;4927123;29;20051;-76
2021/06/24 08:54:38;;;;;;;4.38;2.95;;;;;;;;;;4929332;28;20055;-76
2021/06/24 08:57:04;;;;;;;6.38;3.80;;;;;;;;;;4931188;29;20071;-76
2021/06/24 08:59:31;;;;;;;9.63;3.60;;;;;;;;;;4927253;29;20168;-77
2021/06/24 09:01:59;;;;;;;9.13;3.67;;;;;;;;;;4927024;28;20032;-75
2021/06/24 09:04:28;;;;;;;8.80;4.13;;;;;;;;;;4933104;29;20036;-76
2021/06/24 09:07:24;;;;;;;7.20;3.92;;;;;;;;;;4932634;29;20032;-76
2021/06/24 09:09:54;;;;;;;6.50;4.18;;;;;;;;;;4900649;29;20106;-77
2021/06/24 09:12:21;;;;;;;7.43;4.03;;;;;;;;;;4947592;28;20102;-77
2021/06/24 09:14:53;;;;;;;8.90;4.30;;;;;;;;;;4935512;28;20042;-76
2021/06/24 09:17:39;;;;;;;7.18;4.53;;;;;;;;;;4933081;28;20048;-75
2021/06/24 09:20:06;;;;;;;6.07;4.03;;;;;;;;;;4932404;29;20408;-76
2021/06/24 09:22:32;;;;;;;7.85;4.10;;;;;;;;;;4931102;29;20036;-74
2021/06/24 09:25:02;;;;;;;8.48;4.10;;;;;;;;;;4949280;28;21507;-76
2021/06/24 09:27:36;;;;;;;6.60;4.10;;;;;;;;;;4946226;28;20036;-74
2021/06/24 09:30:08;;;;;;;5.05;3.30;;;;;;;;;;4923294;28;20035;-79
2021/06/24 09:32:45;;;;;;;7.28;3.60;;;;;;;;;;4937552;29;20036;-76
2021/06/24 09:35:22;;;;;;;6.53;3.45;;;;;;;;;;4932037;28;20071;-76
2021/06/24 09:38:03;;;;;;;6.30;3.83;;;;;;;;;;4928297;28;20050;-77
2021/06/24 09:40:44;;;;;;;7.03;3.15;;;;;;;;;;4923230;29;20111;-76
2021/06/24 09:43:33;;;;;;;4.68;3.17;;;;;;;;;;4935624;29;20036;-75
2021/06/24 09:46:20;;;;;;;8.32;3.55;;;;;;;;;;4934902;29;20042;-75
2021/06/24 09:49:08;;;;;;;6.90;3.30;;;;;;;;;;4934468;29;20035;-74
2021/06/24 09:51:56;;;;;;;6.85;2.90;;;;;;;;;;4931618;29;20491;-74
2021/06/24 09:54:44;;;;;;;3.95;2.78;;;;;;;;;;4934105;29;20512;-75
2021/06/24 09:57:31;;;;;;;6.07;2.80;;;;;;;;;;4933895;29;20048;-73
2021/06/24 10:00:25;;;;;;;5.07;2.70;;;;;;;;;;4933803;29;20028;-74
2021/06/24 10:03:13;;;;;;;6.60;2.58;;;;;;;;;;4931497;29;20036;-75
2021/06/24 10:05:59;;;;;;;5.45;2.40;;;;;;;;;;4934778;28;20027;-75
2021/06/24 10:08:46;;;;;;;4.75;2.10;;;;;;;;;;4932446;29;20066;-74
2021/06/24 10:11:33;;;;;;;5.70;2.30;;;;;;;;;;4933538;28;20028;-74
2021/06/24 10:14:20;;;;;;;4.85;2.10;;;;;;;;;;4933641;29;20031;-74
2021/06/24 10:17:08;;;;;;;4.00;2.17;;;;;;;;;;4932210;29;20047;-74
2021/06/24 10:19:55;;;;;;;6.22;2.30;;;;;;;;;;4934219;29;20042;-73
2021/06/24 10:22:42;;;;;;;4.88;1.98;;;;;;;;;;4933354;28;20051;-74
2021/06/24 10:25:29;;;;;;;5.32;2.35;;;;;;;;;;4932932;29;20040;-75
2021/06/24 10:28:19;;;;;;;4.40;2.05;;;;;;;;;;4934508;29;20521;-73
2021/06/24 10:31:06;;;;;;;5.32;2.50;;;;;;;;;;4934732;29;20407;-77
2021/06/24 10:33:56;;;;;;;4.38;2.35;;;;;;;;;;4933748;29;20028;-75
2021/06/24 10:37:01;;;;;;;7.10;2.60;;;;;;;;;;4932965;29;20050;-77
2021/06/24 10:39:48;;;;;;;6.60;2.55;;;;;;;;;;4934914;29;20035;-79
2021/06/24 10:42:50;;;;;;;8.52;2.70;;;;;;;;;;4933660;29;20384;-77
2021/06/24 10:45:37;;;;;;;4.57;2.50;;;;;;;;;;4933143;29;20036;-81
2021/06/24 10:48:32;;;;;;;6.13;2.70;;;;;;;;;;4935404;29;20035;-77
2021/06/24 10:51:19;;;;;;;6.43;2.70;;;;;;;;;;4927394;29;20414;-77
2021/06/24 10:54:05;;;;;;;9.77;3.05;;;;;;;;;;4933019;29;20035;-75
2021/06/24 10:56:55;;;;;;;11.55;3.10;;;;;;;;;;4932651;29;20704;-78
2021/06/24 10:59:42;;;;;;;3.88;2.72;;;;;;;;;;4932451;29;20036;-78
2021/06/24 11:02:28;;;;;;;4.03;2.30;;;;;;;;;;4932988;29;20042;-81
2021/06/24 11:05:21;;;;;;;4.75;2.80;;;;;;;;;;4932263;29;20032;-83
2021/06/24 11:08:10;;;;;;;5.28;2.53;;;;;;;;;;4932206;29;20490;-84
2021/06/24 11:11:01;;;;;;;4.97;2.53;;;;;;;;;;4933363;29;20039;-85
2021/06/24 11:13:50;;;;;;;6.22;2.88;;;;;;;;;;4933226;29;20039;-76
2021/06/24 11:16:36;;;;;;;5.38;2.47;;;;;;;;;;4931846;29;20059;-76
2021/06/24 11:19:23;;;;;;;6.40;2.28;;;;;;;;;;4930787;29;20395;-75
2021/06/24 11:22:10;;;;;;;3.83;2.30;;;;;;;;;;4926680;29;20407;-77
2021/06/24 11:24:58;;;;;;;4.65;2.40;;;;;;;;;;4928954;29;20043;-76
2021/06/24 11:27:45;;;;;;;4.80;2.17;;;;;;;;;;4927520;29;20042;-76
2021/06/24 11:30:50;;;;;;;7.10;2.33;;;;;;;;;;4930865;29;20049;-76
2021/06/24 11:33:45;;;;;;;5.18;2.42;;;;;;;;;;4932522;29;20042;-75
2021/06/24 11:36:35;;;;;;;4.65;2.10;;;;;;;;;;4930907;29;20047;-75
2021/06/24 11:39:23;;;;;;;3.85;2.30;;;;;;;;;;4933559;29;20385;-76
2021/06/24 11:42:14;;;;;;;3.53;2.30;;;;;;;;;;4933048;29;20419;-77
2021/06/24 11:45:01;;;;;;;4.88;2.55;;;;;;;;;;4932863;29;20463;-76
2021/06/24 11:47:48;;;;;;;4.15;2.30;;;;;;;;;;4933559;28;20031;-77
2021/06/24 12:03:08;;;;;;;5.10;2.58;;;;;;;;;;4931947;29;20028;-77
2021/06/24 12:05:55;;;;;;;3.55;2.55;;;;;;;;;;4945366;29;20148;-75
2021/06/24 12:08:42;;;;;;;3.22;2.40;;;;;;;;;;4945016;28;20087;-76
2021/06/24 12:11:36;;;;;;;4.72;2.40;;;;;;;;;;4921508;29;20496;-76
2021/06/24 12:14:33;;;;;;;4.30;2.50;;;;;;;;;;4933969;28;20039;-76
2021/06/24 12:17:30;;;;;;;3.83;2.40;;;;;;;;;;4932585;29;20095;-76
2021/06/24 12:20:23;;;;;;;5.78;2.80;;;;;;;;;;4932532;29;20037;-76
2021/06/24 12:23:17;;;;;;;5.90;2.90;;;;;;;;;;4929369;29;20036;-78
2021/06/24 12:26:07;;;;;;;4.90;2.67;;;;;;;;;;4933602;29;20039;-77
2021/06/24 12:29:02;;;;;;;6.72;3.05;;;;;;;;;;4928531;29;20507;-75
2021/06/24 12:31:48;;;;;;;5.18;2.75;;;;;;;;;;4931790;29;20027;-76
2021/06/24 12:34:35;;;;;;;4.03;2.40;;;;;;;;;;4931825;29;20519;-77
2021/06/24 12:37:31;;;;;;;4.47;2.50;;;;;;;;;;4933341;28;20067;-74
2021/06/24 12:40:22;;;;;;;4.28;2.63;;;;;;;;;;4932369;29;20028;-75
2021/06/24 12:43:10;;;;;;;4.57;2.90;;;;;;;;;;4928199;29;20031;-76
2021/06/24 12:45:58;;;;;;;3.97;2.90;;;;;;;;;;4931669;29;20044;-75
2021/06/24 12:48:46;;;;;;;4.65;2.95;;;;;;;;;;4935912;29;20027;-76
2021/06/24 12:51:38;;;;;;;5.57;3.50;;;;;;;;;;4936701;29;20032;-76
2021/06/24 12:54:25;;;;;;;4.80;3.20;;;;;;;;;;4947762;29;20044;-78
2021/06/24 12:57:23;;;;;;;6.45;3.08;;;;;;;;;;4932417;29;20082;-75
2021/06/24 13:00:10;;;;;;;5.68;3.20;;;;;;;;;;4935359;29;20043;-76
2021/06/24 13:02:57;;;;;;;5.10;3.08;;;;;;;;;;4943975;28;20046;-77
2021/06/24 13:05:44;;;;;;;6.85;3.40;;;;;;;;;;4935509;29;20038;-75
2021/06/24 13:08:31;;;;;;;5.85;2.83;;;;;;;;;;4934370;29;20755;-75
2021/06/24 13:11:20;;;;;;;6.85;3.17;;;;;;;;;;4929805;29;20039;-76
2021/06/24 13:14:10;;;;;;;3.88;2.67;;;;;;;;;;4932278;29;20495;-76
2021/06/24 13:17:01;;;;;;;6.13;3.38;;;;;;;;;;4934813;29;20051;-75
2021/06/24 13:19:52;;;;;;;4.82;3.05;;;;;;;;;;4937138;28;20032;-76
2021/06/24 13:22:39;;;;;;;3.75;2.83;;;;;;;;;;4936014;29;20665;-75
2021/06/24 13:25:26;;;;;;;5.07;3.20;;;;;;;;;;4933556;29;20040;-77
2021/06/24 13:28:13;;;;;;;5.03;2.63;;;;;;;;;;4935325;29;20044;-77
2021/06/24 13:30:59;;;;;;;5.63;2.88;;;;;;;;;;4931747;29;20034;-75
2021/06/24 13:33:46;;;;;;;4.70;2.80;;;;;;;;;;4929744;29;20035;-77
2021/06/24 13:36:33;;;;;;;5.10;2.65;;;;;;;;;;4924801;29;20059;-76
2021/06/24 13:39:34;;;;;;;5.80;3.28;;;;;;;;;;4946170;28;20035;-75
2021/06/24 13:42:21;;;;;;;;;;;;;;;;;;4931240;29;20049;-76
2021/06/24 13:45:11;;;;;;;5.88;3.00;;;;;;;;;;4935884;28;19906;-76
2021/06/24 13:47:58;;;;;;;4.22;2.50;;;;;;;;;;4934277;29;20054;-77
2021/06/24 13:50:44;;;;;;;4.43;2.85;;;;;;;;;;4934252;29;20049;-77
2021/06/24 13:53:31;;;;;;;6.30;2.88;;;;;;;;;;4934764;29;20035;-78
2021/06/24 13:56:18;;;;;;;4.75;3.20;;;;;;;;;;4934716;28;20031;-79
2021/06/24 13:59:05;;;;;;;7.05;4.05;;;;;;;;;;4945913;28;20051;-77
2021/06/24 14:01:52;;;;;;;6.07;3.58;;;;;;;;;;4934036;29;20408;-77
2021/06/24 14:04:39;;;;;;;8.57;3.60;;;;;;;;;;4923766;29;20140;-75
2021/06/24 14:07:26;;;;;;;7.50;3.67;;;;;;;;;;4932465;29;20039;-76
2021/06/24 14:10:13;;;;;;;4.38;3.25;;;;;;;;;;4934450;29;20036;-77
2021/06/24 14:13:00;;;;;;;4.68;2.97;;;;;;;;;;4934184;29;20032;-77
2021/06/24 14:15:46;;;;;;;5.70;3.50;;;;;;;;;;4933920;28;20047;-77
2021/06/24 14:18:33;;;;;;;5.53;3.58;;;;;;;;;;4934124;29;20644;-77
2021/06/24 14:21:20;;;;;;;6.30;4.05;;;;;;;;;;4933168;29;20039;-75
2021/06/24 14:24:07;;;;;;;6.88;3.67;;;;;;;;;;4934634;29;20047;-76
2021/06/24 14:26:55;;;;;;;6.80;3.70;;;;;;;;;;4932645;29;20024;-77
2021/06/24 14:29:42;;;;;;;5.95;3.25;;;;;;;;;;4934138;29;20411;-76
2021/06/24 14:32:29;;;;;;;5.50;3.58;;;;;;;;;;4931741;29;20491;-75
2021/06/24 14:35:16;;;;;;;7.05;3.67;;;;;;;;;;4933279;29;20039;-76
2021/06/24 14:38:02;;;;;;;7.70;3.42;;;;;;;;;;4932003;29;20058;-75
2021/06/24 14:40:49;;;;;;;5.45;3.47;;;;;;;;;;4931562;29;20058;-78
2021/06/24 14:43:36;;;;;;;4.93;3.08;;;;;;;;;;4933550;29;20423;-76
2021/06/24 14:46:23;;;;;;;5.22;3.58;;;;;;;;;;4933491;29;20024;-76
2021/06/24 14:49:10;;;;;;;5.90;3.97;;;;;;;;;;4931348;29;20031;-76
2021/06/24 14:52:01;;;;;;;5.95;3.28;;;;;;;;;;4933009;29;20047;-75
2021/06/24 14:54:48;;;;;;;5.40;3.28;;;;;;;;;;4928347;29;20044;-76
2021/06/24 14:57:35;;;;;;;5.68;3.60;;;;;;;;;;4934467;29;20063;-76
2021/06/24 15:00:22;;;;;;;7.28;3.78;;;;;;;;;;4931237;29;20027;-77
2021/06/24 15:03:09;;;;;;;6.88;3.38;;;;;;;;;;4934359;29;20538;-76
2021/06/24 15:05:56;;;;;;;5.53;3.85;;;;;;;;;;4928864;29;20059;-75
2021/06/24 15:08:43;;;;;;;4.70;3.53;;;;;;;;;;4931003;29;20063;-76
2021/06/24 15:11:30;;;;;;;5.03;3.30;;;;;;;;;;4932374;29;20031;-75
2021/06/24 15:14:16;;;;;;;4.47;3.50;;;;;;;;;;4938362;29;20063;-76
2021/06/24 15:17:03;;;;;;;4.60;3.35;;;;;;;;;;4933164;29;20051;-77
2021/06/24 15:19:50;;;;;;;6.38;3.38;;;;;;;;;;4930791;29;20486;-75
2021/06/24 15:22:37;;;;;;;5.30;3.20;;;;;;;;;;4930408;29;20443;-76
2021/06/24 15:25:24;;;;;;;6.35;3.83;;;;;;;;;;4929860;29;20036;-76
2021/06/24 15:28:11;;;;;;;4.82;3.80;;;;;;;;;;4937320;29;20058;-75
2021/06/24 15:30:59;;;;;;;6.03;3.67;;;;;;;;;;4934275;29;20035;-75
2021/06/24 15:33:47;;;;;;;6.22;3.67;;;;;;;;;;4939378;29;20023;-77
2021/06/24 15:36:34;;;;;;;5.97;3.60;;;;;;;;;;4938058;29;20051;-76
2021/06/24 15:39:21;;;;;;;5.00;3.40;;;;;;;;;;4944066;29;20055;-75